createdAt,value
2017-09-17T16:47:10.628Z,284
2017-09-17T16:48:19.633Z,284
2017-09-17T16:49:28.283Z,284
2017-09-17T16:50:37.915Z,284
2017-09-17T16:51:46.878Z,280
2017-09-17T16:52:56.505Z,272
2017-09-17T16:54:05.539Z,268
2017-09-17T16:55:14.505Z,260
2017-09-17T16:56:23.489Z,256
2017-09-17T16:57:32.152Z,248
2017-09-17T16:58:41.112Z,244
2017-09-17T16:59:50.117Z,240
2017-09-17T17:00:59.398Z,232
2017-09-17T17:02:08.059Z,224
2017-09-17T17:03:17.051Z,220
2017-09-17T17:04:26.498Z,212
2017-09-17T17:05:35.478Z,204
2017-09-17T17:06:44.762Z,196
2017-09-17T17:07:53.721Z,188
2017-09-17T17:09:03.020Z,184
2017-09-17T17:10:12.152Z,172
2017-09-17T17:11:21.451Z,164
2017-09-17T17:12:30.463Z,160
2017-09-17T17:13:39.449Z,152
2017-09-17T17:14:48.181Z,148
2017-09-17T17:15:57.188Z,140
2017-09-17T17:17:06.177Z,132
2017-09-17T17:18:15.148Z,128
2017-09-17T17:19:24.459Z,124
2017-09-17T17:20:33.757Z,112
2017-09-17T17:21:42.830Z,108
2017-09-17T17:22:51.822Z,100
2017-09-17T17:24:00.804Z,96
2017-09-17T17:25:09.494Z,92
2017-09-17T17:26:18.164Z,84
2017-09-17T17:27:27.174Z,80
2017-09-17T17:28:36.882Z,72
2017-09-17T17:29:45.564Z,68
2017-09-17T17:30:55.183Z,60
2017-09-17T17:32:03.850Z,60
2017-09-17T17:33:13.513Z,56
2017-09-17T17:34:22.507Z,48
2017-09-17T17:35:31.172Z,44
2017-09-17T17:36:40.145Z,40
2017-09-17T17:37:49.438Z,36
2017-09-17T17:38:58.765Z,32
2017-09-17T17:40:08.396Z,28
2017-09-17T17:41:17.081Z,24
2017-09-17T17:42:25.779Z,20
2017-09-17T17:43:35.061Z,20
2017-09-17T17:44:45.023Z,16
2017-09-17T17:45:54.041Z,16
2017-09-17T17:47:03.650Z,12
2017-09-17T17:48:12.738Z,12
2017-09-17T17:49:22.417Z,12
2017-09-17T17:50:31.214Z,8
2017-09-17T17:51:40.830Z,8
2017-09-17T17:52:49.795Z,8
2017-09-17T17:53:58.771Z,4
2017-09-17T17:55:08.079Z,4
2017-09-17T17:56:17.520Z,4
2017-09-17T17:57:26.177Z,4
2017-09-17T17:58:35.519Z,0
2017-09-17T17:59:44.920Z,0
2017-09-17T18:00:54.182Z,0
2017-09-17T18:02:03.021Z,0
2017-09-17T18:03:12.072Z,4
2017-09-17T18:04:21.886Z,4
2017-09-17T18:05:30.936Z,4
2017-09-17T18:06:40.005Z,4
2017-09-17T18:07:49.790Z,4
2017-09-17T18:08:58.511Z,4
2017-09-17T18:10:07.805Z,4
2017-09-17T18:11:16.828Z,4
2017-09-17T18:12:26.311Z,4
2017-09-17T18:13:35.605Z,4
2017-09-17T18:14:44.622Z,4
2017-09-17T18:15:54.300Z,0
2017-09-17T18:17:03.285Z,4
2017-09-17T18:18:12.623Z,4
2017-09-17T18:19:22.335Z,4
2017-09-17T18:20:31.049Z,4
2017-09-17T18:21:40.470Z,4
2017-09-17T18:22:49.232Z,4
2017-09-17T18:23:58.283Z,4
2017-09-17T18:25:07.325Z,0
2017-09-17T18:26:16.315Z,4
2017-09-17T18:27:25.298Z,4
2017-09-17T18:28:33.953Z,4
2017-09-17T18:29:42.939Z,4
2017-09-17T18:30:52.060Z,4
2017-09-17T18:32:01.668Z,4
2017-09-17T18:33:10.318Z,4
2017-09-17T18:34:19.597Z,0
2017-09-17T18:35:28.249Z,4
2017-09-17T18:36:36.919Z,4
2017-09-17T18:37:45.583Z,4
2017-09-17T18:38:54.240Z,4
2017-09-17T18:40:03.224Z,4
2017-09-17T18:41:12.216Z,4
2017-09-17T18:42:20.896Z,4
2017-09-17T18:43:30.506Z,4
2017-09-17T18:44:40.116Z,4
2017-09-17T18:45:49.708Z,4
2017-09-17T18:46:58.976Z,4
2017-09-17T18:48:08.083Z,4
2017-09-17T18:49:17.360Z,4
2017-09-17T18:50:26.639Z,0
2017-09-17T18:51:35.603Z,0
2017-09-17T18:52:44.880Z,0
2017-09-17T18:53:54.254Z,0
2017-09-17T18:55:03.531Z,0
2017-09-17T18:56:13.170Z,0
2017-09-17T18:57:22.190Z,0
2017-09-17T18:58:31.474Z,0
2017-09-17T18:59:41.103Z,0
2017-09-17T19:00:50.382Z,0
2017-09-17T19:01:59.033Z,0
2017-09-17T19:03:08.329Z,0
2017-09-17T19:04:17.596Z,0
2017-09-17T19:05:26.729Z,0
2017-09-17T19:06:35.733Z,0
2017-09-17T19:07:44.698Z,0
2017-09-17T19:08:53.718Z,0
2017-09-17T19:10:02.682Z,0
2017-09-17T19:11:11.806Z,0
2017-09-17T19:12:20.796Z,0
2017-09-17T19:13:30.427Z,0
2017-09-17T19:14:39.720Z,0
2017-09-17T19:15:48.362Z,0
2017-09-17T19:16:57.970Z,0
2017-09-17T19:18:07.269Z,0
2017-09-17T19:19:16.259Z,0
2017-09-17T19:20:26.184Z,0
2017-09-17T19:21:35.519Z,0
2017-09-17T19:22:44.970Z,0
2017-09-17T19:23:54.334Z,0
2017-09-17T19:25:03.293Z,0
2017-09-17T19:26:11.942Z,0
2017-09-17T19:27:20.934Z,0
2017-09-17T19:28:30.093Z,0
2017-09-17T19:29:39.075Z,0
2017-09-17T19:30:48.378Z,0
2017-09-17T19:31:57.658Z,0
2017-09-17T19:33:06.656Z,0
2017-09-17T19:34:15.996Z,0
2017-09-17T19:35:25.297Z,0
2017-09-17T19:36:34.282Z,0
2017-09-17T19:37:43.295Z,0
2017-09-17T19:38:52.272Z,0
2017-09-17T19:40:01.086Z,0
2017-09-17T19:41:10.101Z,0
2017-09-17T19:42:19.048Z,0
2017-09-17T19:43:28.092Z,0
2017-09-17T19:44:37.087Z,4
2017-09-17T19:45:46.245Z,4
2017-09-17T19:46:55.235Z,4
2017-09-17T19:48:03.875Z,4
2017-09-17T19:49:12.535Z,0
2017-09-17T19:50:21.513Z,0
2017-09-17T19:51:30.629Z,0
2017-09-17T19:52:39.598Z,0
2017-09-17T19:53:48.565Z,0
2017-09-17T19:54:57.847Z,0
2017-09-17T19:56:07.493Z,0
2017-09-17T19:57:16.311Z,0
2017-09-17T19:58:24.991Z,0
2017-09-17T19:59:34.270Z,0
2017-09-17T20:00:43.609Z,0
2017-09-17T20:01:52.565Z,0
2017-09-17T20:03:01.222Z,0
2017-09-17T20:04:10.207Z,0
2017-09-17T20:05:19.195Z,0
2017-09-17T20:06:28.165Z,0
2017-09-17T20:07:37.462Z,0
2017-09-17T20:08:47.211Z,0
2017-09-17T20:09:56.799Z,4
2017-09-17T20:11:05.451Z,0
2017-09-17T20:12:14.743Z,0
2017-09-17T20:13:24.049Z,0
2017-09-17T20:14:32.860Z,0
2017-09-17T20:15:41.836Z,0
2017-09-17T20:16:50.832Z,0
2017-09-17T20:18:00.446Z,0
2017-09-17T20:19:09.445Z,0
2017-09-17T20:20:18.563Z,0
2017-09-17T20:21:27.257Z,0
2017-09-17T20:22:35.906Z,0
2017-09-17T20:23:44.563Z,0
2017-09-17T20:24:53.314Z,0
2017-09-17T20:26:02.928Z,0
2017-09-17T20:27:11.909Z,0
2017-09-17T20:28:20.876Z,0
2017-09-17T20:29:29.849Z,0
2017-09-17T20:30:39.459Z,0
2017-09-17T20:31:48.263Z,0
2017-09-17T20:32:56.917Z,0
2017-09-17T20:34:05.602Z,0
2017-09-17T20:35:14.886Z,4
2017-09-17T20:36:24.536Z,0
2017-09-17T20:37:33.675Z,0
2017-09-17T20:38:42.320Z,0
2017-09-17T20:39:51.627Z,0
2017-09-17T20:41:00.610Z,0
2017-09-17T20:42:09.907Z,0
2017-09-17T20:43:18.572Z,0
2017-09-17T20:44:27.558Z,0
2017-09-17T20:45:36.533Z,0
2017-09-17T20:46:45.592Z,0
2017-09-17T20:47:54.904Z,0
2017-09-17T20:49:04.348Z,0
2017-09-17T20:50:13.960Z,0
2017-09-17T20:51:22.643Z,0
2017-09-17T20:52:31.359Z,0
2017-09-17T20:53:40.331Z,0
2017-09-17T20:54:49.143Z,0
2017-09-17T20:55:57.809Z,0
2017-09-17T20:57:07.101Z,0
2017-09-17T20:58:16.110Z,0
2017-09-17T20:59:25.398Z,0
2017-09-17T21:00:34.198Z,0
2017-09-17T21:01:43.805Z,0
2017-09-17T21:02:52.781Z,0
2017-09-17T21:04:02.077Z,0
2017-09-17T21:05:10.745Z,0
2017-09-17T21:06:20.665Z,0
2017-09-17T21:07:30.271Z,0
2017-09-17T21:08:39.553Z,0
2017-09-17T21:09:48.520Z,0
2017-09-17T21:10:57.711Z,0
2017-09-17T21:12:07.658Z,0
2017-09-17T21:13:16.626Z,4
2017-09-17T21:14:26.237Z,4
2017-09-17T21:15:34.890Z,4
2017-09-17T21:16:44.192Z,0
2017-09-17T21:17:53.573Z,0
2017-09-17T21:19:02.864Z,0
2017-09-17T21:20:11.882Z,0
2017-09-17T21:21:21.168Z,0
2017-09-17T21:22:30.124Z,0
2017-09-17T21:23:39.715Z,0
2017-09-17T21:24:49.017Z,0
2017-09-17T21:25:57.994Z,0
2017-09-17T21:27:07.271Z,0
2017-09-17T21:28:16.245Z,0
2017-09-17T21:29:25.538Z,0
2017-09-17T21:30:34.498Z,0
2017-09-17T21:31:43.517Z,0
2017-09-17T21:32:52.289Z,0
2017-09-17T21:34:00.940Z,0
2017-09-17T21:35:09.753Z,0
2017-09-17T21:36:18.729Z,0
2017-09-17T21:37:28.337Z,0
2017-09-17T21:38:37.317Z,0
2017-09-17T21:39:46.616Z,4
2017-09-17T21:40:55.613Z,4
2017-09-17T21:42:05.200Z,4
2017-09-17T21:43:13.909Z,0
2017-09-17T21:44:23.199Z,0
2017-09-17T21:45:32.183Z,0
2017-09-17T21:46:41.482Z,0
2017-09-17T21:47:50.779Z,0
2017-09-17T21:49:00.387Z,0
2017-09-17T21:50:09.689Z,0
2017-09-17T21:51:18.702Z,0
2017-09-17T21:52:28.134Z,0
2017-09-17T21:53:37.107Z,0
2017-09-17T21:54:46.455Z,0
2017-09-17T21:55:55.429Z,0
2017-09-17T21:57:04.390Z,0
2017-09-17T21:58:13.831Z,0
2017-09-17T21:59:22.509Z,0
2017-09-17T22:00:31.786Z,0
2017-09-17T22:01:41.385Z,0
2017-09-17T22:02:50.719Z,0
2017-09-17T22:03:59.466Z,0
2017-09-17T22:05:08.131Z,0
2017-09-17T22:06:17.104Z,0
2017-09-17T22:07:26.099Z,0
2017-09-17T22:08:34.773Z,0
2017-09-17T22:09:43.857Z,0
2017-09-17T22:10:53.131Z,0
2017-09-17T22:12:02.115Z,0
2017-09-17T22:13:11.103Z,0
2017-09-17T22:14:19.769Z,0
2017-09-17T22:15:28.721Z,0
2017-09-17T22:16:38.648Z,0
2017-09-17T22:17:48.262Z,0
2017-09-17T22:18:57.556Z,0
2017-09-17T22:20:06.867Z,0
2017-09-17T22:21:15.949Z,0
2017-09-17T22:22:24.619Z,0
2017-09-17T22:23:33.932Z,0
2017-09-17T22:24:42.653Z,0
2017-09-17T22:25:51.630Z,0
2017-09-17T22:27:00.309Z,0
2017-09-17T22:28:09.292Z,0
2017-09-17T22:29:17.944Z,0
2017-09-17T22:30:26.604Z,0
2017-09-17T22:31:35.289Z,0
2017-09-17T22:32:44.733Z,0
2017-09-17T22:33:54.043Z,0
2017-09-17T22:35:02.699Z,0
2017-09-17T22:36:11.667Z,0
2017-09-17T22:37:20.952Z,0
2017-09-17T22:38:30.245Z,0
2017-09-17T22:39:39.537Z,0
2017-09-17T22:40:49.147Z,0
2017-09-17T22:41:58.771Z,0
2017-09-17T22:43:07.415Z,0
2017-09-17T22:44:17.058Z,0
2017-09-17T22:45:26.016Z,0
2017-09-17T22:46:34.670Z,0
2017-09-17T22:47:43.655Z,0
2017-09-17T22:48:52.940Z,0
2017-09-17T22:50:02.725Z,0
2017-09-17T22:51:12.029Z,0
2017-09-17T22:52:20.692Z,0
2017-09-17T22:53:29.681Z,0
2017-09-17T22:54:38.655Z,0
2017-09-17T22:55:47.629Z,0
2017-09-17T22:56:56.630Z,0
2017-09-17T22:58:05.605Z,0
2017-09-17T22:59:14.261Z,0
2017-09-17T23:00:23.264Z,0
2017-09-17T23:01:33.168Z,0
2017-09-17T23:02:42.136Z,0
2017-09-17T23:03:50.787Z,0
2017-09-17T23:05:00.425Z,0
2017-09-17T23:06:09.080Z,0
2017-09-17T23:07:18.383Z,0
2017-09-17T23:08:27.398Z,0
2017-09-17T23:09:36.684Z,0
2017-09-17T23:10:46.344Z,0
2017-09-17T23:11:55.308Z,0
2017-09-17T23:13:04.278Z,0
2017-09-17T23:14:13.249Z,0
2017-09-17T23:15:22.226Z,0
2017-09-17T23:16:31.510Z,0
2017-09-17T23:17:40.814Z,0
2017-09-17T23:18:49.948Z,0
2017-09-17T23:19:59.321Z,0
2017-09-17T23:21:08.950Z,0
2017-09-17T23:22:18.235Z,0
2017-09-17T23:23:27.727Z,0
2017-09-17T23:24:36.524Z,0
2017-09-17T23:25:45.167Z,0
2017-09-17T23:26:54.777Z,0
2017-09-17T23:28:04.391Z,0
2017-09-17T23:29:14.285Z,0
2017-09-17T23:30:22.993Z,0
2017-09-17T23:31:31.953Z,0
2017-09-17T23:32:40.624Z,0
2017-09-17T23:33:49.294Z,0
2017-09-17T23:34:58.927Z,0
2017-09-17T23:36:08.048Z,0
2017-09-17T23:37:17.360Z,0
2017-09-17T23:38:26.320Z,0
2017-09-17T23:39:35.284Z,0
2017-09-17T23:40:44.866Z,0
2017-09-17T23:41:53.526Z,0
2017-09-17T23:43:02.493Z,0
2017-09-17T23:44:12.118Z,0
2017-09-17T23:45:21.432Z,0
2017-09-17T23:46:30.724Z,0
2017-09-17T23:47:39.382Z,0
2017-09-17T23:48:48.352Z,0
2017-09-17T23:49:57.948Z,0
2017-09-17T23:51:07.260Z,0
2017-09-17T23:52:15.927Z,0
2017-09-17T23:53:25.250Z,0
2017-09-17T23:54:34.224Z,0
2017-09-17T23:55:43.524Z,0
2017-09-17T23:56:52.819Z,0
2017-09-17T23:58:02.134Z,0
2017-09-17T23:59:11.138Z,0
